createdAt,value
2023-04-19T00:01:43.491Z,100453.91
2023-04-19T00:04:10.581Z,100455.94
2023-04-19T00:06:37.803Z,100455.13
2023-04-19T00:09:05.286Z,100456.13
2023-04-19T00:11:32.226Z,100449.78
2023-04-19T00:13:59.160Z,100450.78
2023-04-19T00:16:26.373Z,100452.63
2023-04-19T00:18:53.356Z,100449.13
2023-04-19T00:21:20.372Z,100456.13
2023-04-19T00:23:47.847Z,100443.78
2023-04-19T00:26:15.806Z,100444.81
2023-04-19T00:28:47.709Z,100443.97
2023-04-19T00:31:16.163Z,100450.16
2023-04-19T00:33:43.090Z,100444.81
2023-04-19T00:36:10.851Z,100447.47
2023-04-19T00:38:37.808Z,100449.31
2023-04-19T00:41:04.798Z,100444.97
2023-04-19T00:43:31.721Z,100436.94
2023-04-19T00:45:58.977Z,100429.75
2023-04-19T00:48:26.211Z,100433.28
2023-04-19T00:50:53.184Z,100430.78
2023-04-19T00:53:20.214Z,100431.59
2023-04-19T00:55:48.519Z,100436.31
2023-04-19T00:58:16.010Z,100440.00
2023-04-19T01:00:43.705Z,100429.50
2023-04-19T01:03:10.859Z,100427.84
2023-04-19T01:05:37.985Z,100425.16
2023-04-19T01:08:05.066Z,100426.16
2023-04-19T01:10:31.980Z,100419.16
2023-04-19T01:12:59.380Z,100424.50
2023-04-19T01:15:26.777Z,100419.16
2023-04-19T01:17:55.952Z,100415.84
2023-04-19T01:20:23.234Z,100420.34
2023-04-19T01:22:50.316Z,100406.16
2023-04-19T01:25:17.365Z,100417.88
2023-04-19T01:27:44.450Z,100415.53
2023-04-19T01:30:11.989Z,100411.22
2023-04-19T01:32:38.973Z,100404.22
2023-04-19T01:35:06.679Z,100397.22
2023-04-19T01:37:37.102Z,100400.91
2023-04-19T01:40:05.885Z,100399.22
2023-04-19T01:42:32.940Z,100406.59
2023-04-19T01:45:01.028Z,100404.94
2023-04-19T01:47:28.106Z,100406.97
2023-04-19T01:49:55.290Z,100411.63
2023-04-19T01:52:22.256Z,100405.66
2023-04-19T01:54:49.242Z,100402.34
2023-04-19T01:57:16.527Z,100397.34
2023-04-19T01:59:43.654Z,100395.69
2023-04-19T02:02:10.830Z,100386.22
2023-04-19T02:04:38.756Z,100386.41
2023-04-19T02:07:06.471Z,100384.72
2023-04-19T02:09:38.972Z,100381.41
2023-04-19T02:12:06.466Z,100377.72
2023-04-19T02:14:33.471Z,100371.72
2023-04-19T02:17:00.538Z,100362.06
2023-04-19T02:19:27.502Z,100368.41
2023-04-19T02:21:57.526Z,100365.91
2023-04-19T02:24:25.175Z,100370.41
2023-04-19T02:26:52.224Z,100370.41
2023-04-19T02:29:19.214Z,100368.13
2023-04-19T02:31:46.509Z,100363.78
2023-04-19T02:34:13.773Z,100366.63
2023-04-19T02:36:41.024Z,100357.78
2023-04-19T02:39:08.383Z,100363.13
2023-04-19T02:41:38.951Z,100361.28
2023-04-19T02:44:05.977Z,100355.13
2023-04-19T02:46:34.751Z,100357.97
2023-04-19T02:49:01.889Z,100357.97
2023-04-19T02:51:29.466Z,100350.16
2023-04-19T02:53:56.648Z,100349.50
2023-04-19T02:56:23.917Z,100350.50
2023-04-19T02:58:53.168Z,100354.13
2023-04-19T03:01:20.228Z,100352.47
2023-04-19T03:03:47.319Z,100351.66
2023-04-19T03:06:14.944Z,100346.31
2023-04-19T03:08:41.954Z,100345.50
2023-04-19T03:11:08.997Z,100340.16
2023-04-19T03:13:36.469Z,100350.00
2023-04-19T03:16:04.138Z,100345.50
2023-04-19T03:18:32.391Z,100342.19
2023-04-19T03:21:01.372Z,100337.84
2023-04-19T03:23:32.512Z,100338.84
2023-04-19T03:26:01.238Z,100342.53
2023-04-19T03:28:44.639Z,100333.88
2023-04-19T03:31:20.205Z,100332.22
2023-04-19T03:33:50.538Z,100332.22
2023-04-19T03:36:18.923Z,100335.91
2023-04-19T03:38:47.164Z,100328.22
2023-04-19T03:41:25.770Z,100327.41
2023-04-19T03:44:02.415Z,100323.09
2023-04-19T03:46:31.954Z,100315.41
2023-04-19T03:49:00.108Z,100324.63
2023-04-19T03:51:28.202Z,100311.47
2023-04-19T03:53:55.122Z,100317.97
2023-04-19T03:56:22.172Z,100316.31
2023-04-19T03:58:51.700Z,100303.16
2023-04-19T04:01:24.114Z,100313.38
2023-04-19T04:03:52.356Z,100311.69
2023-04-19T04:06:19.607Z,100312.06
2023-04-19T04:08:47.253Z,100315.72
2023-04-19T04:11:14.373Z,100315.09
2023-04-19T04:13:43.074Z,100312.75
2023-04-19T04:16:17.875Z,100311.44
2023-04-19T04:18:44.998Z,100318.78
2023-04-19T04:21:14.860Z,100314.66
2023-04-19T04:23:47.118Z,100316.84
2023-04-19T04:26:21.884Z,100314.53
2023-04-19T04:29:12.452Z,100311.38
2023-04-19T04:31:40.692Z,100306.22
2023-04-19T04:34:09.300Z,100310.91
2023-04-19T04:36:41.722Z,100313.91
2023-04-19T04:39:11.843Z,100318.41
2023-04-19T04:41:42.032Z,100314.28
2023-04-19T04:44:23.062Z,100317.94
2023-04-19T04:46:50.579Z,100313.59
2023-04-19T04:49:23.602Z,100304.13
2023-04-19T04:51:51.209Z,100313.13
2023-04-19T04:54:18.415Z,100314.97
2023-04-19T04:56:46.875Z,100309.81
2023-04-19T04:59:14.032Z,100303.81
2023-04-19T05:01:44.337Z,100308.31
2023-04-19T05:04:12.024Z,100308.31
2023-04-19T05:06:41.060Z,100316.31
2023-04-19T05:09:09.638Z,100311.16
2023-04-19T05:11:36.841Z,100319.34
2023-04-19T05:14:04.504Z,100312.19
2023-04-19T05:16:33.652Z,100313.38
2023-04-19T05:19:01.168Z,100309.69
2023-04-19T05:21:34.479Z,100311.69
2023-04-19T05:24:03.493Z,100316.03
2023-04-19T05:26:32.093Z,100309.84
2023-04-19T05:29:00.099Z,100316.03
2023-04-19T05:31:48.444Z,100315.16
2023-04-19T05:34:22.640Z,100325.69
2023-04-19T05:36:50.359Z,100315.84
2023-04-19T05:39:17.491Z,100320.16
2023-04-19T05:41:44.467Z,100323.66
2023-04-19T05:44:11.406Z,100320.00
2023-04-19T05:46:38.536Z,100318.97
2023-04-19T05:49:07.560Z,100315.31
2023-04-19T05:52:00.506Z,100317.81
2023-04-19T05:54:44.358Z,100321.13
2023-04-19T05:57:11.683Z,100318.28
2023-04-19T05:59:38.658Z,100334.09
2023-04-19T06:02:06.268Z,100332.94
2023-04-19T06:04:33.437Z,100329.91
2023-04-19T06:09:28.508Z,100331.69
2023-04-19T06:11:56.718Z,100337.53
2023-04-19T06:14:24.495Z,100338.47
2023-04-19T06:16:51.604Z,100332.78
2023-04-19T06:19:18.759Z,100336.59
2023-04-19T06:21:46.117Z,100336.06
2023-04-19T06:24:13.363Z,100338.03
2023-04-19T06:26:40.517Z,100345.97
2023-04-19T06:29:07.524Z,100337.25
2023-04-19T06:31:34.494Z,100342.88
2023-04-19T06:34:01.522Z,100336.84
2023-04-19T06:36:29.072Z,100337.81
2023-04-19T06:38:56.077Z,100339.78
2023-04-19T06:41:23.111Z,100339.69
2023-04-19T06:43:50.429Z,100336.94
2023-04-19T06:46:17.458Z,100339.53
2023-04-19T06:48:44.437Z,100338.81
2023-04-19T06:51:11.425Z,100331.72
2023-04-19T06:53:38.417Z,100323.81
2023-04-19T06:56:05.967Z,100331.94
2023-04-19T06:58:34.963Z,100328.19
2023-04-19T07:01:06.187Z,100316.75
2023-04-19T07:03:33.674Z,100322.00
2023-04-19T07:06:00.846Z,100321.06
2023-04-19T07:08:42.316Z,100321.78
2023-04-19T07:11:15.548Z,100311.19
2023-04-19T07:13:42.468Z,100311.94
2023-04-19T07:16:09.573Z,100318.19
2023-04-19T07:18:36.527Z,100313.53
2023-04-19T07:21:03.590Z,100309.72
2023-04-19T07:23:30.858Z,100317.47
2023-04-19T07:25:57.859Z,100322.53
2023-04-19T07:28:24.832Z,100306.16
2023-04-19T07:30:51.776Z,100311.38
2023-04-19T07:33:18.766Z,100318.47
2023-04-19T07:35:45.994Z,100312.41
2023-04-19T07:38:13.246Z,100312.50
2023-04-19T07:40:40.265Z,100320.44
2023-04-19T07:43:07.226Z,100312.31
2023-04-19T07:45:34.144Z,100315.75
2023-04-19T07:48:01.218Z,100316.00
2023-04-19T07:50:28.419Z,100314.00
2023-04-19T07:52:56.621Z,100316.31
2023-04-19T07:55:23.595Z,100310.16
2023-04-19T07:57:50.619Z,100314.72
2023-04-19T08:00:23.899Z,100308.16
2023-04-19T08:02:51.224Z,100309.81
2023-04-19T08:05:18.586Z,100314.16
2023-04-19T08:07:45.898Z,100304.44
2023-04-19T08:10:13.556Z,100318.88
2023-04-19T08:12:50.463Z,100312.91
2023-04-19T08:16:03.682Z,100314.28
2023-04-19T08:18:11.145Z,100310.16
2023-04-19T08:20:38.194Z,100308.06
2023-04-19T08:23:17.704Z,100313.22
2023-04-19T08:25:45.507Z,100303.91
2023-04-19T08:28:12.613Z,100297.25
2023-04-19T08:33:08.284Z,100304.25
2023-04-19T08:35:38.716Z,100300.13
2023-04-19T08:38:05.627Z,100296.81
2023-04-19T08:40:32.731Z,100296.81
2023-04-19T08:42:59.970Z,100293.09
2023-04-19T08:45:30.792Z,100295.56
2023-04-19T08:48:01.378Z,100294.53
2023-04-19T08:53:09.029Z,100292.31
2023-04-19T08:58:28.854Z,100284.03
2023-04-19T09:01:12.775Z,100278.88
2023-04-19T09:03:59.466Z,100265.72
2023-04-19T09:06:41.629Z,100257.28
2023-04-19T09:09:34.859Z,100260.44
2023-04-19T09:12:17.790Z,100261.94
2023-04-19T09:17:17.377Z,100264.47
2023-04-19T09:19:49.640Z,100259.75
2023-04-19T09:22:17.096Z,100254.59
2023-04-19T09:27:34.164Z,100255.06
2023-04-19T09:30:04.124Z,100249.88
2023-04-19T09:32:48.168Z,100235.66
2023-04-19T09:35:15.469Z,100246.00
2023-04-19T09:40:25.764Z,100236.91
2023-04-19T09:48:03.281Z,100227.63
2023-04-19T09:50:31.840Z,100236.09
2023-04-19T09:52:59.925Z,100230.31
2023-04-19T09:55:29.033Z,100222.88
2023-04-19T09:57:57.243Z,100229.69
2023-04-19T10:00:27.020Z,100221.84
2023-04-19T10:02:58.396Z,100219.38
2023-04-19T10:05:26.395Z,100217.91
2023-04-19T10:07:59.554Z,100220.00
2023-04-19T10:10:41.287Z,100219.56
2023-04-19T10:15:52.755Z,100215.00
2023-04-19T10:18:22.887Z,100212.97
2023-04-19T10:21:00.881Z,100224.75
2023-04-19T10:23:28.954Z,100218.31
2023-04-19T10:25:59.558Z,100218.72
2023-04-19T10:28:30.744Z,100212.13
2023-04-19T10:31:03.850Z,100209.00
2023-04-19T10:33:41.072Z,100206.94
2023-04-19T10:36:15.023Z,100207.56
2023-04-19T10:38:51.418Z,100206.31
2023-04-19T10:41:22.698Z,100205.09
2023-04-19T10:43:55.633Z,100203.81
2023-04-19T10:46:22.896Z,100200.69
2023-04-19T10:48:57.769Z,100191.00
2023-04-19T10:51:36.363Z,100194.31
2023-04-19T10:54:29.981Z,100194.72
2023-04-19T10:57:07.534Z,100201.53
2023-04-19T10:59:37.137Z,100179.63
2023-04-19T11:02:28.173Z,100174.84
2023-04-19T11:04:55.432Z,100175.25
2023-04-19T11:07:22.440Z,100174.00
2023-04-19T11:09:51.729Z,100177.72
2023-04-19T11:12:21.178Z,100174.41
2023-04-19T11:14:59.787Z,100170.47
2023-04-19T11:17:32.028Z,100164.50
2023-04-19T11:20:10.772Z,100164.88
2023-04-19T11:22:47.308Z,100157.25
2023-04-19T11:25:22.092Z,100151.28
2023-04-19T11:27:52.982Z,100150.63
2023-04-19T11:30:23.070Z,100140.31
2023-04-19T11:32:54.290Z,100146.72
2023-04-19T11:35:27.072Z,100141.56
2023-04-19T11:37:56.248Z,100147.09
2023-04-19T11:40:28.137Z,100145.66
2023-04-19T11:43:02.116Z,100135.97
2023-04-19T11:45:38.247Z,100139.69
2023-04-19T11:48:07.254Z,100136.34
2023-04-19T11:50:41.808Z,100131.81
2023-04-19T11:53:18.335Z,100134.31
2023-04-19T11:55:51.229Z,100125.66
2023-04-19T11:58:33.442Z,100131.88
2023-04-19T12:01:06.983Z,100120.34
2023-04-19T12:03:40.187Z,100123.25
2023-04-19T12:06:13.707Z,100121.41
2023-04-19T12:08:49.667Z,100115.84
2023-04-19T12:11:24.544Z,100110.50
2023-04-19T12:14:18.365Z,100113.84
2023-04-19T12:16:46.029Z,100109.31
2023-04-19T12:19:14.065Z,100112.19
2023-04-19T12:21:41.631Z,100108.06
2023-04-19T12:24:08.741Z,100101.44
2023-04-19T12:26:36.474Z,100108.50
2023-04-19T12:29:04.140Z,100105.59
2023-04-19T12:31:34.889Z,100103.53
2023-04-19T12:34:01.929Z,100098.59
2023-04-19T12:36:30.250Z,100098.97
2023-04-19T12:38:57.243Z,100093.22
2023-04-19T12:41:24.164Z,100096.50
2023-04-19T12:43:51.105Z,100090.72
2023-04-19T12:46:18.085Z,100086.59
2023-04-19T12:48:45.050Z,100077.13
2023-04-19T12:51:12.026Z,100079.59
2023-04-19T12:53:41.281Z,100077.53
2023-04-19T12:56:08.229Z,100080.41
2023-04-19T12:58:35.807Z,100070.50
2023-04-19T13:01:02.837Z,100075.44
2023-04-19T13:03:33.128Z,100061.38
2023-04-19T13:06:00.874Z,100071.28
2023-04-19T13:08:41.407Z,100065.88
2023-04-19T13:11:12.632Z,100066.06
2023-04-19T13:13:39.568Z,100061.31
2023-04-19T13:16:07.875Z,100055.94
2023-04-19T13:18:35.277Z,100056.38
2023-04-19T13:21:02.226Z,100050.56
2023-04-19T13:23:29.171Z,100043.34
2023-04-19T13:25:56.146Z,100032.22
2023-04-19T13:28:23.086Z,100024.19
2023-04-19T13:30:50.092Z,100027.91
2023-04-19T13:33:17.138Z,100029.13
2023-04-19T13:35:45.000Z,100028.47
2023-04-19T13:38:12.039Z,100015.19
2023-04-19T13:40:39.000Z,100010.97
2023-04-19T13:43:05.928Z,100009.50
2023-04-19T13:45:32.833Z,100001.63
2023-04-19T13:47:59.843Z,99994.63
2023-04-19T13:50:26.889Z,99983.28
2023-04-19T13:52:53.880Z,99989.06
2023-04-19T13:55:21.215Z,99976.50
2023-04-19T13:57:48.201Z,99982.72
2023-04-19T14:00:16.378Z,99974.47
2023-04-19T14:02:44.930Z,99974.06
2023-04-19T14:05:12.028Z,99966.63
2023-04-19T14:07:42.067Z,99969.09
2023-04-19T14:10:10.575Z,99965.97
2023-04-19T14:12:37.514Z,99958.31
2023-04-19T14:15:04.906Z,99958.72
2023-04-19T14:17:32.043Z,99953.72
2023-04-19T14:19:58.990Z,99947.09
2023-04-19T14:22:25.984Z,99949.72
2023-04-19T14:24:52.978Z,99941.97
2023-04-19T14:27:20.246Z,99943.66
2023-04-19T14:29:47.222Z,99951.16
2023-04-19T14:32:24.868Z,99950.69
2023-04-19T14:34:55.097Z,99962.28
2023-04-19T14:37:23.629Z,99972.41
2023-04-19T14:39:50.758Z,99968.34
2023-04-19T14:42:18.825Z,99968.69
2023-04-19T14:44:50.506Z,99965.75
2023-04-19T14:47:17.448Z,99975.44
2023-04-19T14:49:44.375Z,99975.78
2023-04-19T14:52:11.464Z,99969.75
2023-04-19T14:54:38.424Z,99958.66
2023-04-19T14:57:05.674Z,99952.91
2023-04-19T14:59:33.641Z,99947.56
2023-04-19T15:02:00.643Z,99943.59
2023-04-19T15:04:27.884Z,99936.78
2023-04-19T15:06:54.994Z,99937.75
2023-04-19T15:09:21.962Z,99937.88
2023-04-19T15:11:48.877Z,99931.06
2023-04-19T15:14:16.109Z,99937.22
2023-04-19T15:16:43.263Z,99938.19
2023-04-19T15:19:10.323Z,99936.75
2023-04-19T15:21:37.316Z,99935.28
2023-04-19T15:24:05.783Z,99924.97
2023-04-19T15:26:33.086Z,99932.34
2023-04-19T15:29:00.113Z,99928.44
2023-04-19T15:31:27.226Z,99924.13
2023-04-19T15:33:54.430Z,99925.78
2023-04-19T15:36:21.346Z,99920.84
2023-04-19T15:38:48.283Z,99924.97
2023-04-19T15:41:15.411Z,99917.38
2023-04-19T15:43:42.334Z,99921.69
2023-04-19T15:46:15.245Z,99924.19
2023-04-19T15:48:43.917Z,99928.72
2023-04-19T15:51:15.180Z,99924.38
2023-04-19T15:53:42.301Z,99920.03
2023-04-19T15:56:09.777Z,99930.94
2023-04-19T15:58:37.316Z,99926.63
2023-04-19T16:01:07.295Z,99936.50
2023-04-19T16:03:34.265Z,99934.44
2023-04-19T16:06:01.433Z,99924.19
2023-04-19T16:08:28.364Z,99935.31
2023-04-19T16:10:55.407Z,99933.06
2023-04-19T16:13:22.351Z,99932.47
2023-04-19T16:15:49.300Z,99936.63
2023-04-19T16:18:16.463Z,99937.25
2023-04-19T16:20:43.413Z,99936.84
2023-04-19T16:23:10.451Z,99935.00
2023-04-19T16:25:37.622Z,99938.72
2023-04-19T16:28:04.602Z,99935.38
2023-04-19T16:30:31.642Z,99931.66
2023-04-19T16:32:58.874Z,99948.88
2023-04-19T16:35:26.940Z,99936.88
2023-04-19T16:37:56.700Z,99944.66
2023-04-19T16:40:24.514Z,99942.31
2023-04-19T16:42:51.609Z,99947.22
2023-04-19T16:45:18.606Z,99951.50
2023-04-19T16:47:46.049Z,99945.28
2023-04-19T16:50:14.030Z,99946.88
2023-04-19T16:52:41.247Z,99943.97
2023-04-19T16:55:08.748Z,99947.03
2023-04-19T16:57:36.581Z,99944.53
2023-04-19T17:00:05.894Z,99951.09
2023-04-19T17:02:33.881Z,99952.50
2023-04-19T17:05:01.380Z,99941.38
2023-04-19T17:07:28.626Z,99944.47
2023-04-19T17:09:55.924Z,99942.97
2023-04-19T17:12:22.938Z,99936.19
2023-04-19T17:14:50.285Z,99946.22
2023-04-19T17:17:19.839Z,99946.22
2023-04-19T17:19:47.240Z,99945.41
2023-04-19T17:22:15.430Z,99946.41
2023-04-19T17:24:42.644Z,99955.66
2023-04-19T17:27:09.732Z,99948.00
2023-04-19T17:29:37.005Z,99946.56
2023-04-19T17:32:06.672Z,99953.94
2023-04-19T17:34:36.027Z,99949.78
2023-04-19T17:37:03.914Z,99948.34
2023-04-19T17:39:30.924Z,99948.91
2023-04-19T17:41:58.038Z,99951.31
2023-04-19T17:44:25.073Z,99943.91
2023-04-19T17:46:52.048Z,99947.13
2023-04-19T17:49:21.048Z,99949.38
2023-04-19T17:51:48.670Z,99951.59
2023-04-19T17:54:16.286Z,99942.28
2023-04-19T17:56:43.591Z,99960.34
2023-04-19T17:59:10.650Z,99965.41
2023-04-19T18:01:37.987Z,99968.84
2023-04-19T18:04:05.529Z,99959.91
2023-04-19T18:06:32.972Z,99966.00
2023-04-19T18:09:00.495Z,99973.91
2023-04-19T18:11:28.706Z,99969.16
2023-04-19T18:13:56.127Z,99975.25
2023-04-19T18:16:23.381Z,99973.94
2023-04-19T18:18:50.613Z,99985.00
2023-04-19T18:21:18.430Z,99982.06
2023-04-19T18:23:45.513Z,99987.78
2023-04-19T18:26:12.442Z,99991.63
2023-04-19T18:28:39.929Z,99993.84
2023-04-19T18:31:08.602Z,99995.00
2023-04-19T18:33:36.328Z,99987.59
2023-04-19T18:36:04.713Z,99995.94
2023-04-19T18:38:31.932Z,99988.69
2023-04-19T18:40:59.385Z,100005.03
2023-04-19T18:43:28.727Z,100000.44
2023-04-19T18:45:56.334Z,99999.13
2023-04-19T18:48:28.987Z,100008.53
2023-04-19T18:50:59.787Z,100001.06
2023-04-19T18:53:29.262Z,100004.28
2023-04-19T18:56:00.305Z,100001.97
2023-04-19T18:58:28.240Z,100008.66
2023-04-19T19:00:55.996Z,100011.03
2023-04-19T19:05:54.796Z,100016.63
2023-04-19T19:08:21.998Z,100009.16
2023-04-19T19:11:13.791Z,100007.91
2023-04-19T19:13:36.169Z,100017.22
2023-04-19T19:16:05.380Z,100014.94
2023-04-19T19:18:32.803Z,100010.97
2023-04-19T19:21:00.283Z,100014.97
2023-04-19T19:23:35.426Z,100011.88
2023-04-19T19:26:04.868Z,100015.88
2023-04-19T19:28:31.812Z,100018.09
2023-04-19T19:30:58.807Z,100011.44
2023-04-19T19:33:28.745Z,100021.63
2023-04-19T19:35:55.886Z,100015.81
2023-04-19T19:38:22.803Z,100012.69
2023-04-19T19:43:19.705Z,100015.22
2023-04-19T19:45:46.768Z,100018.03
2023-04-19T19:48:13.785Z,100018.41
2023-04-19T19:53:10.918Z,100022.78
2023-04-19T19:55:38.019Z,100020.59
2023-04-19T20:00:44.765Z,100022.31
2023-04-19T20:03:13.575Z,100020.34
2023-04-19T20:05:40.802Z,100011.06
2023-04-19T20:08:13.742Z,100012.41
2023-04-19T20:10:42.849Z,100017.22
2023-04-19T20:13:11.752Z,100025.75
2023-04-19T20:15:40.288Z,100019.09
2023-04-19T20:18:08.180Z,100022.13
2023-04-19T20:20:36.425Z,100023.47
2023-04-19T20:23:03.418Z,100023.13
2023-04-19T20:25:32.392Z,100024.50
2023-04-19T20:28:00.439Z,100024.81
2023-04-19T20:30:28.056Z,100020.88
2023-04-19T20:32:55.041Z,100021.38
2023-04-19T20:35:23.119Z,100018.06
2023-04-19T20:37:50.835Z,100013.06
2023-04-19T20:40:18.433Z,100021.22
2023-04-19T20:42:45.411Z,100019.56
2023-04-19T20:45:15.478Z,100020.56
2023-04-19T20:47:43.089Z,100025.22
2023-04-19T20:50:10.759Z,100021.06
2023-04-19T20:52:38.062Z,100014.94
2023-04-19T20:55:05.522Z,100023.09
2023-04-19T20:57:32.484Z,100016.94
2023-04-19T21:00:00.382Z,100015.13
2023-04-19T21:02:27.905Z,100020.56
2023-04-19T21:04:54.930Z,100017.91
2023-04-19T21:07:21.898Z,100015.63
2023-04-19T21:09:48.821Z,100014.78
2023-04-19T21:12:15.936Z,100009.66
2023-04-19T21:14:45.531Z,100004.66
2023-04-19T21:17:13.569Z,100010.16
2023-04-19T21:19:40.461Z,100010.31
2023-04-19T21:22:07.398Z,100000.03
2023-04-19T21:24:34.327Z,99999.38
2023-04-19T21:27:01.420Z,99992.41
2023-04-19T21:29:28.411Z,99982.94
2023-04-19T21:31:56.053Z,99988.59
2023-04-19T21:34:23.333Z,99993.06
2023-04-19T21:36:50.428Z,99991.41
2023-04-19T21:39:17.531Z,99984.59
2023-04-19T21:41:44.626Z,99985.59
2023-04-19T21:44:11.577Z,99984.13
2023-04-19T21:46:38.509Z,99983.31
2023-04-19T21:49:05.546Z,99988.09
2023-04-19T21:51:32.453Z,99983.78
2023-04-19T21:53:59.403Z,99986.63
2023-04-19T21:56:26.672Z,99983.16
2023-04-19T21:58:53.658Z,99983.31
2023-04-19T22:01:20.809Z,99986.13
2023-04-19T22:03:48.006Z,99987.78
2023-04-19T22:06:16.957Z,99982.47
2023-04-19T22:08:43.981Z,99982.47
2023-04-19T22:11:11.849Z,99978.16
2023-04-19T22:13:38.793Z,99980.16
2023-04-19T22:16:06.312Z,99971.38
2023-04-19T22:18:35.634Z,99976.84
2023-04-19T22:21:02.716Z,99961.91
2023-04-19T22:23:29.656Z,99969.19
2023-04-19T22:25:56.686Z,99959.59
2023-04-19T22:28:23.593Z,99957.28
2023-04-19T22:30:51.585Z,99957.59
2023-04-19T22:33:19.379Z,99954.13
2023-04-19T22:35:46.338Z,99955.94
2023-04-19T22:38:13.467Z,99951.63
2023-04-19T22:40:40.586Z,99945.69
2023-04-19T22:43:07.514Z,99946.66
2023-04-19T22:45:34.429Z,99946.81
2023-04-19T22:48:01.420Z,99939.84
2023-04-19T22:50:28.581Z,99937.38
2023-04-19T22:52:55.528Z,99939.34
2023-04-19T22:55:22.538Z,99921.13
2023-04-19T22:57:49.505Z,99928.44
2023-04-19T23:00:17.889Z,99921.63
2023-04-19T23:02:44.906Z,99913.81
2023-04-19T23:05:11.927Z,99913.19
2023-04-19T23:07:41.786Z,99911.66
2023-04-19T23:10:10.197Z,99910.00
2023-04-19T23:12:38.630Z,99913.84
2023-04-19T23:15:07.518Z,99908.19
2023-04-19T23:17:34.665Z,99909.19
2023-04-19T23:20:01.724Z,99911.19
2023-04-19T23:22:28.651Z,99900.72
2023-04-19T23:24:55.989Z,99901.06
2023-04-19T23:27:22.953Z,99904.22
2023-04-19T23:29:49.887Z,99901.09
2023-04-19T23:32:18.101Z,99897.94
2023-04-19T23:34:45.243Z,99901.09
2023-04-19T23:37:13.580Z,99904.22
2023-04-19T23:39:40.492Z,99892.28
2023-04-19T23:42:07.432Z,99901.59
2023-04-19T23:44:34.451Z,99891.47
2023-04-19T23:47:02.717Z,99885.00
2023-04-19T23:49:30.211Z,99876.69
2023-04-19T23:51:57.205Z,99878.84
2023-04-19T23:54:26.167Z,99872.38
2023-04-19T23:56:53.714Z,99876.34
2023-04-19T23:59:20.866Z,99861.94
